createdAt,value
2023-02-11T00:00:18.048Z,103477.09
2023-02-11T00:02:47.541Z,103484.25
2023-02-11T00:05:14.405Z,103476.22
2023-02-11T00:07:40.850Z,103476.22
2023-02-11T00:10:08.514Z,103463.69
2023-02-11T00:12:36.330Z,103466.34
2023-02-11T00:15:03.445Z,103473.53
2023-02-11T00:17:29.979Z,103473.53
2023-02-11T00:19:56.482Z,103463.69
2023-02-11T00:22:22.999Z,103469.97
2023-02-11T00:24:49.547Z,103461.00
2023-02-11T00:27:16.077Z,103466.38
2023-02-11T00:29:42.520Z,103469.97
2023-02-11T00:32:10.581Z,103473.59
2023-02-11T00:34:38.056Z,103472.72
2023-02-11T00:37:05.489Z,103471.81
2023-02-11T00:39:32.539Z,103472.72
2023-02-11T00:41:59.105Z,103472.72
2023-02-11T00:44:25.594Z,103475.38
2023-02-11T00:46:52.122Z,103468.25
2023-02-11T00:49:18.612Z,103468.25
2023-02-11T00:51:45.037Z,103482.53
2023-02-11T00:54:12.326Z,103472.72
2023-02-11T00:56:39.046Z,103471.88
2023-02-11T00:59:05.589Z,103461.13
2023-02-11T01:01:32.114Z,103460.25
2023-02-11T01:03:58.638Z,103457.56
2023-02-11T01:06:25.128Z,103456.69
2023-02-11T01:08:51.703Z,103446.91
2023-02-11T01:11:20.612Z,103438.94
2023-02-11T01:13:48.560Z,103445.31
2023-02-11T01:16:16.061Z,103449.81
2023-02-11T01:18:44.215Z,103448.06
2023-02-11T01:21:11.445Z,103439.16
2023-02-11T01:23:37.941Z,103424.97
2023-02-11T01:26:05.213Z,103416.00
2023-02-11T01:28:31.922Z,103415.22
2023-02-11T01:31:01.335Z,103423.31
2023-02-11T01:33:28.092Z,103423.38
2023-02-11T01:35:54.581Z,103445.72
2023-02-11T01:38:26.129Z,103451.03
2023-02-11T01:40:55.957Z,103461.69
2023-02-11T01:43:24.093Z,103472.34
2023-02-11T01:46:16.593Z,103462.50
2023-02-11T01:48:47.180Z,103460.72
2023-02-11T01:51:22.554Z,103453.56
2023-02-11T01:54:08.794Z,103454.47
2023-02-11T01:56:57.462Z,103458.06
2023-02-11T01:59:32.085Z,103464.31
2023-02-11T02:02:05.108Z,103460.78
2023-02-11T02:04:39.880Z,103469.72
2023-02-11T02:07:12.022Z,103473.31
2023-02-11T02:09:43.087Z,103464.38
2023-02-11T02:12:09.670Z,103463.47
2023-02-11T02:14:41.126Z,103459.00
2023-02-11T02:17:17.236Z,103452.78
2023-02-11T02:20:05.537Z,103450.09
2023-02-11T02:23:03.231Z,103453.66
2023-02-11T02:25:32.377Z,103454.59
2023-02-11T02:28:17.990Z,103444.84
2023-02-11T02:31:02.993Z,103452.09
2023-02-11T02:33:46.322Z,103446.84
2023-02-11T02:36:22.771Z,103456.81
2023-02-11T02:39:05.670Z,103444.31
2023-02-11T02:41:35.853Z,103430.03
2023-02-11T02:44:02.553Z,103432.69
2023-02-11T02:46:33.142Z,103426.41
2023-02-11T02:49:00.467Z,103435.34
2023-02-11T02:51:49.529Z,103433.59
2023-02-11T02:54:35.785Z,103435.34
2023-02-11T03:00:42.323Z,103442.34
2023-02-11T03:03:20.355Z,103436.06
2023-02-11T03:05:58.635Z,103429.84
2023-02-11T03:08:34.468Z,103428.03
2023-02-11T03:11:03.359Z,103429.84
2023-02-11T03:13:33.712Z,103424.47
2023-02-11T03:16:25.379Z,103425.38
2023-02-11T03:19:00.150Z,103412.88
2023-02-11T03:21:27.813Z,103407.56
2023-02-11T03:23:56.614Z,103404.94
2023-02-11T03:26:44.003Z,103398.75
2023-02-11T03:29:19.963Z,103399.59
2023-02-11T03:32:08.065Z,103402.28
2023-02-11T03:34:57.539Z,103401.44
2023-02-11T03:37:28.982Z,103404.13
2023-02-11T03:40:17.341Z,103401.38
2023-02-11T03:42:48.760Z,103394.25
2023-02-11T03:45:19.886Z,103392.47
2023-02-11T03:47:51.683Z,103387.19
2023-02-11T03:50:19.647Z,103383.72
2023-02-11T03:52:49.867Z,103380.22
2023-02-11T03:55:19.168Z,103386.53
2023-02-11T03:57:47.014Z,103395.53
2023-02-11T04:00:14.367Z,103397.31
2023-02-11T04:02:41.387Z,103392.88
2023-02-11T04:05:10.666Z,103409.81
2023-02-11T04:07:37.151Z,103406.19
2023-02-11T04:10:04.455Z,103410.59
2023-02-11T04:12:30.885Z,103412.34
2023-02-11T04:14:57.344Z,103406.91
2023-02-11T04:17:24.109Z,103409.53
2023-02-11T04:19:50.512Z,103415.69
2023-02-11T04:22:16.949Z,103413.00
2023-02-11T04:24:44.089Z,103406.72
2023-02-11T04:27:10.605Z,103414.72
2023-02-11T04:29:38.128Z,103417.38
2023-02-11T04:32:04.869Z,103421.84
2023-02-11T04:34:31.606Z,103416.47
2023-02-11T04:36:58.023Z,103426.22
2023-02-11T04:39:24.588Z,103419.06
2023-02-11T04:41:51.211Z,103415.47
2023-02-11T04:44:17.684Z,103419.94
2023-02-11T04:46:44.995Z,103422.59
2023-02-11T04:49:16.263Z,103426.16
2023-02-11T04:51:43.082Z,103427.03
2023-02-11T04:54:09.522Z,103418.97
2023-02-11T04:56:36.163Z,103428.75
2023-02-11T04:59:03.846Z,103418.00
2023-02-11T05:01:30.453Z,103415.34
2023-02-11T05:03:57.971Z,103416.19
2023-02-11T05:06:24.722Z,103411.75
2023-02-11T05:08:51.343Z,103417.06
2023-02-11T05:11:20.430Z,103421.50
2023-02-11T05:13:47.309Z,103425.09
2023-02-11T05:16:14.952Z,103418.81
2023-02-11T05:18:42.937Z,103417.03
2023-02-11T05:21:13.455Z,103419.72
2023-02-11T05:23:40.697Z,103419.69
2023-02-11T05:26:08.541Z,103422.34
2023-02-11T05:28:36.189Z,103416.97
2023-02-11T05:31:03.229Z,103433.00
2023-02-11T05:33:29.886Z,103425.88
2023-02-11T05:36:06.463Z,103420.50
2023-02-11T05:38:33.315Z,103413.34
2023-02-11T05:41:00.648Z,103415.13
2023-02-11T05:43:27.654Z,103415.09
2023-02-11T05:45:54.431Z,103410.63
2023-02-11T05:48:21.144Z,103410.63
2023-02-11T05:50:47.652Z,103414.19
2023-02-11T05:53:14.345Z,103415.06
2023-02-11T05:55:41.003Z,103412.38
2023-02-11T05:58:08.507Z,103419.53
2023-02-11T06:00:35.340Z,103424.00
2023-02-11T06:03:01.938Z,103421.28
2023-02-11T06:05:28.444Z,103415.03
2023-02-11T06:07:54.958Z,103423.03
2023-02-11T06:10:21.457Z,103423.03
2023-02-11T06:12:48.401Z,103429.28
2023-02-11T06:15:14.967Z,103431.97
2023-02-11T06:17:41.374Z,103426.56
2023-02-11T06:20:10.419Z,103430.13
2023-02-11T06:22:37.031Z,103427.44
2023-02-11T06:25:03.835Z,103426.53
2023-02-11T06:27:30.688Z,103433.59
2023-02-11T06:29:57.109Z,103435.41
2023-02-11T06:32:42.707Z,103426.44
2023-02-11T06:35:12.150Z,103432.69
2023-02-11T06:37:39.171Z,103429.97
2023-02-11T06:40:06.324Z,103430.84
2023-02-11T06:42:32.824Z,103425.50
2023-02-11T06:44:59.315Z,103423.69
2023-02-11T06:47:25.867Z,103419.16
2023-02-11T06:49:52.367Z,103416.44
2023-02-11T06:52:18.804Z,103418.22
2023-02-11T06:54:45.249Z,103419.97
2023-02-11T06:57:11.682Z,103426.22
2023-02-11T06:59:38.131Z,103424.41
2023-02-11T07:02:04.615Z,103423.50
2023-02-11T07:04:31.137Z,103429.75
2023-02-11T07:06:57.644Z,103435.97
2023-02-11T07:09:24.057Z,103450.25
2023-02-11T07:11:50.498Z,103443.06
2023-02-11T07:14:16.956Z,103436.81
2023-02-11T07:16:43.431Z,103442.09
2023-02-11T07:19:10.509Z,103441.19
2023-02-11T07:21:37.235Z,103443.84
2023-02-11T07:24:10.778Z,103452.72
2023-02-11T07:26:37.628Z,103457.16
2023-02-11T07:29:04.110Z,103458.00
2023-02-11T07:31:30.992Z,103458.88
2023-02-11T07:34:00.110Z,103465.94
2023-02-11T07:36:27.336Z,103469.50
2023-02-11T07:38:53.958Z,103464.03
2023-02-11T07:41:22.676Z,103460.44
2023-02-11T07:43:49.840Z,103468.41
2023-02-11T07:46:19.309Z,103480.00
2023-02-11T07:48:45.856Z,103478.13
2023-02-11T07:51:18.218Z,103478.09
2023-02-11T07:53:45.253Z,103474.47
2023-02-11T07:56:13.644Z,103469.06
2023-02-11T07:58:42.110Z,103468.13
2023-02-11T08:01:12.252Z,103476.09
2023-02-11T08:03:39.363Z,103469.84
2023-02-11T08:06:07.562Z,103476.00
2023-02-11T08:08:34.261Z,103475.06
2023-02-11T08:11:08.709Z,103473.19
2023-02-11T08:13:35.783Z,103479.31
2023-02-11T08:16:03.065Z,103484.63
2023-02-11T08:18:30.399Z,103483.69
2023-02-11T08:20:56.820Z,103479.22
2023-02-11T08:23:23.254Z,103483.66
2023-02-11T08:25:49.666Z,103484.56
2023-02-11T08:28:16.154Z,103487.25
2023-02-11T08:30:42.644Z,103484.56
2023-02-11T08:33:09.123Z,103488.19
2023-02-11T08:35:36.962Z,103486.41
2023-02-11T08:38:03.438Z,103488.19
2023-02-11T08:40:29.912Z,103491.75
2023-02-11T08:42:56.435Z,103500.69
2023-02-11T08:45:22.922Z,103508.63
2023-02-11T08:47:49.344Z,103499.63
2023-02-11T08:50:15.818Z,103498.63
2023-02-11T08:52:43.037Z,103500.28
2023-02-11T08:55:09.521Z,103498.41
2023-02-11T08:57:36.081Z,103501.75
2023-02-11T09:00:03.578Z,103504.28
2023-02-11T09:02:30.082Z,103504.19
2023-02-11T09:04:56.606Z,103512.19
2023-02-11T09:07:23.077Z,103514.81
2023-02-11T09:09:49.493Z,103514.66
2023-02-11T09:12:15.983Z,103522.53
2023-02-11T09:14:43.020Z,103522.34
2023-02-11T09:17:09.668Z,103523.06
2023-02-11T09:19:36.165Z,103529.28
2023-02-11T09:22:02.649Z,103530.09
2023-02-11T09:24:29.078Z,103521.06
2023-02-11T09:26:55.554Z,103526.31
2023-02-11T09:29:22.038Z,103523.41
2023-02-11T09:31:48.813Z,103526.84
2023-02-11T09:34:15.912Z,103529.56
2023-02-11T09:36:42.448Z,103530.34
2023-02-11T09:39:13.932Z,103531.13
2023-02-11T09:42:01.524Z,103530.16
2023-02-11T09:44:36.116Z,103538.13
2023-02-11T09:47:07.126Z,103535.13
2023-02-11T09:49:47.442Z,103542.97
2023-02-11T09:52:25.354Z,103539.72
2023-02-11T09:54:58.402Z,103542.31
2023-02-11T09:57:36.493Z,103539.19
2023-02-11T10:00:20.652Z,103546.75
2023-02-11T10:03:26.807Z,103547.31
2023-02-11T10:06:08.077Z,103555.81
2023-02-11T10:08:56.859Z,103552.91
2023-02-11T10:11:36.965Z,103568.13
2023-02-11T10:14:28.789Z,103558.34
2023-02-11T10:17:23.375Z,103567.69
2023-02-11T10:20:11.530Z,103573.81
2023-02-11T10:22:43.239Z,103570.50
2023-02-11T10:25:40.283Z,103569.84
2023-02-11T10:28:21.617Z,103583.44
2023-02-11T10:30:57.618Z,103578.94
2023-02-11T10:33:32.489Z,103581.84
2023-02-11T10:35:59.316Z,103578.13
2023-02-11T10:38:30.931Z,103583.69
2023-02-11T10:40:57.459Z,103595.19
2023-02-11T10:43:27.330Z,103597.72
2023-02-11T10:45:55.877Z,103604.31
2023-02-11T10:48:40.420Z,103600.06
2023-02-11T10:51:14.660Z,103590.75
2023-02-11T10:53:41.866Z,103592.25
2023-02-11T10:58:55.272Z,103585.16
2023-02-11T11:01:24.869Z,103592.44
2023-02-11T11:03:52.900Z,103585.31
2023-02-11T11:06:31.554Z,103596.94
2023-02-11T11:08:58.502Z,103601.75
2023-02-11T11:11:26.489Z,103604.00
2023-02-11T11:13:52.901Z,103595.09
2023-02-11T11:16:29.662Z,103603.41
2023-02-11T11:19:08.195Z,103602.41
2023-02-11T11:21:46.328Z,103600.06
2023-02-11T11:24:29.322Z,103605.84
2023-02-11T11:26:59.602Z,103617.34
2023-02-11T11:29:44.021Z,103617.75
2023-02-11T11:32:20.738Z,103623.28
2023-02-11T11:34:52.607Z,103617.94
2023-02-11T11:37:24.493Z,103621.53
2023-02-11T11:40:02.297Z,103622.44
2023-02-11T11:42:33.954Z,103623.28
2023-02-11T11:45:15.378Z,103627.47
2023-02-11T11:47:44.562Z,103620.03
2023-02-11T11:50:22.892Z,103632.41
2023-02-11T11:53:00.129Z,103617.59
2023-02-11T11:56:07.554Z,103610.19
2023-02-11T11:58:34.747Z,103613.47
2023-02-11T12:01:38.101Z,103604.41
2023-02-11T12:04:17.772Z,103609.38
2023-02-11T12:07:17.453Z,103606.50
2023-02-11T12:09:55.883Z,103600.75
2023-02-11T12:12:52.822Z,103594.03
2023-02-11T12:15:30.245Z,103587.41
2023-02-11T12:18:17.966Z,103591.38
2023-02-11T12:21:09.716Z,103599.13
2023-02-11T12:23:55.061Z,103601.53
2023-02-11T12:26:40.251Z,103599.16
2023-02-11T12:29:06.685Z,103599.66
2023-02-11T12:31:50.775Z,103591.97
2023-02-11T12:34:43.357Z,103592.97
2023-02-11T12:37:31.029Z,103579.88
2023-02-11T12:40:17.321Z,103594.72
2023-02-11T12:43:17.749Z,103593.28
2023-02-11T12:45:52.788Z,103591.88
2023-02-11T12:48:40.867Z,103597.06
2023-02-11T12:51:10.137Z,103595.25
2023-02-11T12:53:45.476Z,103595.25
2023-02-11T12:56:22.897Z,103594.78
2023-02-11T12:58:54.204Z,103590.44
2023-02-11T13:01:26.842Z,103586.44
2023-02-11T13:04:16.514Z,103591.63
2023-02-11T13:06:51.730Z,103587.97
2023-02-11T13:09:42.028Z,103582.34
2023-02-11T13:12:31.311Z,103586.91
2023-02-11T13:15:05.422Z,103589.63
2023-02-11T13:17:54.525Z,103601.59
2023-02-11T13:20:35.248Z,103591.25
2023-02-11T13:23:21.209Z,103587.13
2023-02-11T13:26:02.552Z,103585.97
2023-02-11T13:29:01.116Z,103589.69
2023-02-11T13:31:29.982Z,103586.97
2023-02-11T13:33:56.708Z,103571.34
2023-02-11T13:36:25.827Z,103584.06
2023-02-11T13:39:20.780Z,103568.56
2023-02-11T13:41:52.470Z,103576.50
2023-02-11T13:44:23.735Z,103571.50
2023-02-11T13:47:10.480Z,103567.63
2023-02-11T13:49:41.304Z,103575.56
2023-02-11T13:52:39.528Z,103568.00
2023-02-11T13:55:12.017Z,103570.88
2023-02-11T13:57:40.414Z,103583.09
2023-02-11T14:00:34.992Z,103582.63
2023-02-11T14:03:29.122Z,103584.81
2023-02-11T14:06:26.432Z,103600.78
2023-02-11T14:09:17.276Z,103598.63
2023-02-11T14:11:49.859Z,103597.94
2023-02-11T14:14:27.496Z,103597.28
2023-02-11T14:17:00.026Z,103598.41
2023-02-11T14:19:38.521Z,103590.72
2023-02-11T14:22:08.173Z,103592.47
2023-02-11T14:24:34.823Z,103589.09
2023-02-11T14:27:28.158Z,103593.47
2023-02-11T14:30:09.305Z,103596.00
2023-02-11T14:32:45.680Z,103601.88
2023-02-11T14:35:34.913Z,103598.53
2023-02-11T14:38:33.999Z,103596.78
2023-02-11T14:41:25.242Z,103596.84
2023-02-11T14:44:11.121Z,103594.56
2023-02-11T14:46:37.820Z,103600.59
2023-02-11T14:49:05.502Z,103603.31
2023-02-11T14:51:36.411Z,103601.25
2023-02-11T14:54:13.300Z,103600.38
2023-02-11T14:56:39.781Z,103603.53
2023-02-11T14:59:22.394Z,103599.94
2023-02-11T15:01:50.779Z,103599.72
2023-02-11T15:04:28.026Z,103611.91
2023-02-11T15:06:57.439Z,103604.88
2023-02-11T15:09:33.946Z,103607.63
2023-02-11T15:12:00.900Z,103604.13
2023-02-11T15:14:33.392Z,103607.25
2023-02-11T15:17:03.702Z,103606.72
2023-02-11T15:19:35.716Z,103616.00
2023-02-11T15:22:24.770Z,103620.16
2023-02-11T15:25:07.973Z,103624.06
2023-02-11T15:27:42.221Z,103626.81
2023-02-11T15:30:20.996Z,103628.81
2023-02-11T15:32:48.775Z,103625.47
2023-02-11T15:35:15.311Z,103625.78
2023-02-11T15:37:42.006Z,103624.97
2023-02-11T15:40:18.826Z,103626.06
2023-02-11T15:43:04.926Z,103631.81
2023-02-11T15:45:35.944Z,103627.66
2023-02-11T15:48:14.305Z,103629.91
2023-02-11T15:50:50.098Z,103630.94
2023-02-11T15:53:30.577Z,103636.59
2023-02-11T15:56:02.895Z,103637.56
2023-02-11T15:58:29.540Z,103629.63
2023-02-11T16:00:59.682Z,103635.22
2023-02-11T16:03:32.393Z,103639.91
2023-02-11T16:06:20.105Z,103641.81
2023-02-11T16:09:16.940Z,103642.88
2023-02-11T16:11:46.222Z,103641.13
2023-02-11T16:14:27.139Z,103648.31
2023-02-11T16:16:58.700Z,103641.28
2023-02-11T16:19:27.093Z,103648.66
2023-02-11T16:21:56.085Z,103642.66
2023-02-11T16:24:26.271Z,103646.41
2023-02-11T16:26:57.006Z,103658.28
2023-02-11T16:29:27.110Z,103661.19
2023-02-11T16:32:05.655Z,103664.00
2023-02-11T16:34:32.113Z,103663.19
2023-02-11T16:36:58.791Z,103666.81
2023-02-11T16:39:25.301Z,103665.91
2023-02-11T16:41:52.358Z,103665.06
2023-02-11T16:44:19.307Z,103668.66
2023-02-11T16:46:46.081Z,103676.78
2023-02-11T16:49:20.415Z,103675.94
2023-02-11T16:51:49.874Z,103680.38
2023-02-11T16:54:18.207Z,103675.88
2023-02-11T16:56:45.228Z,103681.28
2023-02-11T16:59:12.443Z,103679.53
2023-02-11T17:01:40.845Z,103698.44
2023-02-11T17:04:10.634Z,103701.13
2023-02-11T17:06:37.161Z,103702.00
2023-02-11T17:09:05.688Z,103706.47
2023-02-11T17:11:32.168Z,103711.94
2023-02-11T17:13:58.824Z,103707.41
2023-02-11T17:16:26.248Z,103714.63
2023-02-11T17:18:52.855Z,103713.81
2023-02-11T17:21:19.390Z,103715.66
2023-02-11T17:23:46.008Z,103716.69
2023-02-11T17:26:12.515Z,103718.56
2023-02-11T17:28:39.004Z,103715.94
2023-02-11T17:31:09.532Z,103720.41
2023-02-11T17:33:37.800Z,103718.72
2023-02-11T17:36:08.596Z,103722.31
2023-02-11T17:38:36.486Z,103722.38
2023-02-11T17:41:04.788Z,103724.19
2023-02-11T17:43:31.860Z,103726.06
2023-02-11T17:45:58.481Z,103720.69
2023-02-11T17:48:25.023Z,103734.25
2023-02-11T17:50:51.502Z,103726.22
2023-02-11T17:53:17.998Z,103734.31
2023-02-11T17:55:44.647Z,103737.03
2023-02-11T17:58:11.216Z,103734.34
2023-02-11T18:00:37.747Z,103732.53
2023-02-11T18:03:04.374Z,103736.19
2023-02-11T18:05:35.731Z,103735.38
2023-02-11T18:08:03.178Z,103735.41
2023-02-11T18:10:29.753Z,103738.19
2023-02-11T18:12:56.298Z,103744.44
2023-02-11T18:15:23.249Z,103741.81
2023-02-11T18:17:49.773Z,103742.75
2023-02-11T18:20:16.324Z,103751.81
2023-02-11T18:22:44.129Z,103745.56
2023-02-11T18:25:14.768Z,103748.25
2023-02-11T18:27:41.847Z,103745.53
2023-02-11T18:30:14.051Z,103754.53
2023-02-11T18:32:40.567Z,103755.47
2023-02-11T18:35:14.856Z,103761.72
2023-02-11T18:37:42.632Z,103759.97
2023-02-11T18:40:10.419Z,103765.34
2023-02-11T18:42:37.026Z,103763.50
2023-02-11T18:45:05.441Z,103769.72
2023-02-11T18:47:32.342Z,103769.78
2023-02-11T18:49:58.969Z,103774.22
2023-02-11T18:52:25.969Z,103770.66
2023-02-11T18:54:52.457Z,103764.38
2023-02-11T18:57:18.887Z,103770.63
2023-02-11T18:59:45.392Z,103769.75
2023-02-11T19:02:12.038Z,103770.72
2023-02-11T19:04:38.558Z,103770.72
2023-02-11T19:07:05.196Z,103777.91
2023-02-11T19:09:31.814Z,103779.66
2023-02-11T19:12:00.785Z,103783.25
2023-02-11T19:14:28.452Z,103778.75
2023-02-11T19:16:57.399Z,103775.13
2023-02-11T19:19:26.806Z,103780.56
2023-02-11T19:21:53.941Z,103788.56
2023-02-11T19:24:21.952Z,103779.63
2023-02-11T19:26:49.743Z,103789.53
2023-02-11T19:29:16.789Z,103790.34
2023-02-11T19:31:44.174Z,103787.66
2023-02-11T19:34:15.357Z,103797.53
2023-02-11T19:36:42.349Z,103807.38
2023-02-11T19:39:09.619Z,103801.97
2023-02-11T19:41:36.498Z,103809.19
2023-02-11T19:44:04.630Z,103808.28
2023-02-11T19:46:33.611Z,103810.94
2023-02-11T19:49:00.928Z,103804.63
2023-02-11T19:51:28.034Z,103810.03
2023-02-11T19:53:54.497Z,103812.69
2023-02-11T19:56:22.364Z,103816.28
2023-02-11T19:58:48.915Z,103817.19
2023-02-11T20:01:18.853Z,103815.38
2023-02-11T20:03:49.802Z,103817.22
2023-02-11T20:06:23.379Z,103823.44
2023-02-11T20:08:58.226Z,103832.47
2023-02-11T20:11:25.805Z,103833.34
2023-02-11T20:13:52.235Z,103833.34
2023-02-11T20:16:21.435Z,103827.94
2023-02-11T20:18:49.872Z,103822.66
2023-02-11T20:21:18.545Z,103822.63
2023-02-11T20:23:46.433Z,103828.94
2023-02-11T20:26:21.499Z,103837.88
2023-02-11T20:28:49.477Z,103837.03
2023-02-11T20:31:16.829Z,103847.78
2023-02-11T20:33:44.234Z,103846.00
2023-02-11T20:36:20.292Z,103847.81
2023-02-11T20:38:47.928Z,103851.38
2023-02-11T20:41:26.580Z,103857.63
2023-02-11T20:43:54.948Z,103859.44
2023-02-11T20:46:24.738Z,103872.00
2023-02-11T20:48:52.239Z,103859.47
2023-02-11T20:51:23.451Z,103860.34
2023-02-11T20:53:51.219Z,103864.81
2023-02-11T20:56:21.513Z,103859.47
2023-02-11T20:58:48.892Z,103862.16
2023-02-11T21:01:21.359Z,103864.88
2023-02-11T21:03:58.074Z,103877.47
2023-02-11T21:06:27.534Z,103878.31
2023-02-11T21:08:54.194Z,103876.50
2023-02-11T21:11:21.085Z,103869.38
2023-02-11T21:13:48.665Z,103881.00
2023-02-11T21:16:22.374Z,103880.13
2023-02-11T21:18:50.163Z,103884.59
2023-02-11T21:21:18.272Z,103880.16
2023-02-11T21:23:45.884Z,103884.66
2023-02-11T21:26:13.016Z,103891.81
2023-02-11T21:28:41.076Z,103893.63
2023-02-11T21:31:09.524Z,103898.13
2023-02-11T21:33:36.034Z,103898.09
2023-02-11T21:36:04.426Z,103904.31
2023-02-11T21:38:30.927Z,103903.41
2023-02-11T21:41:03.380Z,103902.53
2023-02-11T21:43:29.944Z,103908.81
2023-02-11T21:45:56.692Z,103899.88
2023-02-11T21:48:25.552Z,103904.38
2023-02-11T21:50:52.883Z,103914.22
2023-02-11T21:53:19.756Z,103911.50
2023-02-11T21:55:46.219Z,103913.38
2023-02-11T21:58:13.154Z,103912.50
2023-02-11T22:00:39.628Z,103908.09
2023-02-11T22:03:06.200Z,103909.81
2023-02-11T22:05:32.702Z,103917.00
2023-02-11T22:07:59.233Z,103923.31
2023-02-11T22:10:25.645Z,103923.28
2023-02-11T22:12:52.119Z,103927.75
2023-02-11T22:15:18.699Z,103914.31
2023-02-11T22:17:45.191Z,103927.75
2023-02-11T22:20:11.939Z,103928.69
2023-02-11T22:22:38.449Z,103932.28
2023-02-11T22:25:05.396Z,103932.28
2023-02-11T22:27:31.963Z,103934.09
2023-02-11T22:29:58.385Z,103930.53
2023-02-11T22:32:24.871Z,103927.88
2023-02-11T22:34:53.284Z,103930.50
2023-02-11T22:37:20.451Z,103926.91
2023-02-11T22:39:47.203Z,103930.56
2023-02-11T22:42:13.649Z,103928.78
2023-02-11T22:44:40.091Z,103931.47
2023-02-11T22:47:06.668Z,103928.81
2023-02-11T22:49:33.212Z,103927.97
2023-02-11T22:51:59.938Z,103934.19
2023-02-11T22:54:26.617Z,103927.97
2023-02-11T22:56:53.568Z,103938.69
2023-02-11T22:59:20.596Z,103932.41
2023-02-11T23:01:47.197Z,103932.47
2023-02-11T23:04:16.819Z,103934.25
2023-02-11T23:06:43.424Z,103934.22
2023-02-11T23:09:12.272Z,103940.53
2023-02-11T23:11:39.281Z,103942.28
2023-02-11T23:14:05.899Z,103936.00
2023-02-11T23:16:34.522Z,103932.47
2023-02-11T23:19:04.979Z,103937.84
2023-02-11T23:21:33.457Z,103940.50
2023-02-11T23:24:05.812Z,103938.72
2023-02-11T23:26:32.352Z,103936.91
2023-02-11T23:28:59.409Z,103939.59
2023-02-11T23:31:29.645Z,103943.22
2023-02-11T23:33:56.378Z,103942.34
2023-02-11T23:36:23.556Z,103937.84
2023-02-11T23:38:50.147Z,103940.56
2023-02-11T23:41:17.567Z,103939.69
2023-02-11T23:43:48.703Z,103941.53
2023-02-11T23:46:15.190Z,103937.91
2023-02-11T23:48:41.709Z,103939.72
2023-02-11T23:51:09.732Z,103939.72
2023-02-11T23:53:38.075Z,103937.03
2023-02-11T23:56:15.067Z,103937.91
2023-02-11T23:58:41.677Z,103940.59
